Time;durP1;ratioP1;P1;durP2;ratioP2;P2;SDS_P1;SDS_P2;PMS_P1;PMS_P2;Temp;Humidity;BMP_temperature;BMP_pressure;BME280_temperature;BME280_humidity;BME280_pressure;Samples;Min_cycle;Max_cycle;Signal;HPM_P1;HPM_P2
2022/05/31 00:02:04;;;;;;;8.60;2.27;;;;;;;7.60;87.74;100956.44;6062796;28;20044;-66
2022/05/31 00:04:59;;;;;;;6.93;1.85;;;;;;;7.18;87.80;100958.00;6053551;28;20046;-66
2022/05/31 00:07:54;;;;;;;5.07;1.93;;;;;;;6.96;88.84;100944.78;6065831;28;20030;-66
2022/05/31 00:10:50;;;;;;;3.73;1.77;;;;;;;7.23;90.57;100947.06;6049024;28;20280;-66
2022/05/31 00:13:45;;;;;;;5.43;2.00;;;;;;;7.26;89.74;100949.47;6055586;28;20464;-66
2022/05/31 00:16:41;;;;;;;3.70;1.57;;;;;;;7.30;88.27;100958.00;6052002;28;20044;-66
2022/05/31 00:19:37;;;;;;;5.95;1.80;;;;;;;7.30;88.88;100944.81;6049383;28;20030;-65
2022/05/31 00:22:34;;;;;;;3.90;1.42;;;;;;;7.30;88.04;100945.66;6054556;28;20033;-65
2022/05/31 00:25:30;;;;;;;4.85;1.50;;;;;;;7.38;87.57;100939.78;6081385;28;20501;-66
2022/05/31 00:28:25;;;;;;;4.70;1.80;;;;;;;7.38;87.63;100929.22;6056487;28;20120;-66
2022/05/31 00:31:20;;;;;;;4.43;1.67;;;;;;;7.61;88.68;100941.47;6060140;28;20033;-67
2022/05/31 00:34:17;;;;;;;3.60;1.70;;;;;;;7.61;88.57;100946.75;6053556;28;20494;-67
2022/05/31 00:37:12;;;;;;;4.93;1.83;;;;;;;7.41;87.76;100950.09;6058610;28;20540;-66
2022/05/31 00:40:09;;;;;;;5.25;1.73;;;;;;;7.30;87.43;100952.72;6056266;28;20065;-65
2022/05/31 00:43:07;;;;;;;3.78;1.80;;;;;;;7.22;87.34;100945.41;6059797;28;20401;-65
2022/05/31 00:46:03;;;;;;;5.32;1.85;;;;;;;7.13;88.21;100931.16;6057160;28;20026;-66
2022/05/31 00:49:02;;;;;;;3.90;1.60;;;;;;;7.45;88.95;100946.25;6058900;28;20045;-67
2022/05/31 00:52:01;;;;;;;5.20;2.03;;;;;;;7.29;89.26;100930.78;6056153;28;20045;-66
2022/05/31 00:55:19;;;;;;;3.03;1.52;;;;;;;7.40;89.14;100941.34;6068597;28;20095;-67
2022/05/31 00:58:18;;;;;;;3.63;1.50;;;;;;;7.24;87.73;100937.38;6068089;28;20042;-66
2022/05/31 01:01:15;;;;;;;5.30;3.10;;;;;;;7.14;87.33;100927.56;6056681;28;20072;-66
2022/05/31 01:04:11;;;;;;;6.43;2.83;;;;;;;7.03;87.89;100939.88;6065926;28;20512;-66
2022/05/31 01:07:06;;;;;;;4.90;2.40;;;;;;;6.98;89.11;100931.50;6058617;28;20038;-66
2022/05/31 01:10:08;;;;;;;4.30;2.20;;;;;;;7.06;89.71;100934.38;6056225;28;20079;-65
2022/05/31 01:13:03;;;;;;;4.63;2.35;;;;;;;7.13;89.90;100936.41;6057608;28;20040;-66
2022/05/31 01:16:04;;;;;;;5.38;2.42;;;;;;;6.82;89.43;100936.25;6057873;28;20038;-65
2022/05/31 01:18:59;;;;;;;4.28;2.50;;;;;;;6.85;89.89;100930.75;6057843;28;20425;-66
2022/05/31 01:21:55;;;;;;;3.85;1.83;;;;;;;6.81;89.95;100929.28;6058926;28;20041;-65
2022/05/31 01:25:07;;;;;;;5.37;1.80;;;;;;;6.47;90.29;100936.25;6066303;28;20088;-66
2022/05/31 01:28:10;;;;;;;5.53;2.13;;;;;;;6.06;90.04;100938.47;6056976;28;20025;-65
2022/05/31 01:31:36;;;;;;;4.70;1.80;;;;;;;5.69;91.03;100937.63;6062568;28;20033;-66
2022/05/31 01:34:40;;;;;;;3.88;1.60;;;;;;;5.41;91.43;100933.47;6091068;28;20061;-66
2022/05/31 01:37:44;;;;;;;4.28;1.67;;;;;;;5.25;92.14;100938.97;6057024;28;20037;-66
2022/05/31 01:40:52;;;;;;;4.63;2.13;;;;;;;5.81;93.38;100942.84;6055659;28;20477;-66
2022/05/31 01:43:49;;;;;;;4.15;2.08;;;;;;;5.78;93.52;100943.06;6077224;28;20061;-66
2022/05/31 01:46:46;;;;;;;5.50;2.15;;;;;;;5.74;93.43;100941.59;6070668;28;20385;-66
2022/05/31 01:49:44;;;;;;;5.13;1.98;;;;;;;6.13;94.46;100934.44;6052050;28;20080;-66
2022/05/31 01:52:40;;;;;;;5.70;2.08;;;;;;;6.33;93.37;100939.09;6051856;28;20049;-65
2022/05/31 01:55:40;;;;;;;5.30;2.10;;;;;;;6.41;93.27;100939.38;6053751;28;20038;-66
2022/05/31 01:58:38;;;;;;;5.63;1.63;;;;;;;6.42;91.87;100935.75;6048371;28;20034;-65
2022/05/31 02:01:35;;;;;;;4.05;1.83;;;;;;;6.45;92.26;100938.16;6056755;28;20065;-65
2022/05/31 02:04:31;;;;;;;6.10;2.15;;;;;;;6.41;91.55;100942.00;6056046;28;20160;-66
2022/05/31 02:07:26;;;;;;;6.07;2.20;;;;;;;6.34;91.37;100924.94;6053542;28;20404;-66
2022/05/31 02:10:23;;;;;;;4.22;2.00;;;;;;;6.58;91.63;100917.84;6051859;28;20041;-66
2022/05/31 02:13:19;;;;;;;4.10;1.83;;;;;;;6.65;92.16;100928.78;6058384;28;20038;-65
2022/05/31 02:16:14;;;;;;;6.87;2.00;;;;;;;6.46;91.11;100930.16;6059278;28;20052;-65
2022/05/31 02:19:18;;;;;;;5.13;1.55;;;;;;;6.43;91.21;100925.13;6069255;28;20026;-67
2022/05/31 02:22:17;;;;;;;5.75;2.08;;;;;;;6.53;91.51;100920.00;6052300;28;20030;-66
2022/05/31 02:25:12;;;;;;;3.67;1.63;;;;;;;6.55;91.62;100933.88;6051772;28;20042;-65
2022/05/31 02:28:08;;;;;;;5.27;2.10;;;;;;;6.57;91.12;100932.84;6053055;28;20172;-66
2022/05/31 02:31:03;;;;;;;4.40;1.90;;;;;;;6.49;91.71;100923.84;6055301;28;20034;-66
2022/05/31 02:33:58;;;;;;;3.90;2.00;;;;;;;6.38;90.56;100924.63;6053526;28;20500;-66
2022/05/31 02:36:54;;;;;;;5.17;1.93;;;;;;;6.34;90.79;100930.22;6051980;28;20041;-66
2022/05/31 02:39:49;;;;;;;7.60;1.88;;;;;;;6.24;91.48;100940.59;6052419;28;20026;-65
2022/05/31 02:42:45;;;;;;;5.37;2.00;;;;;;;6.49;92.11;100931.72;6050710;28;20029;-66
2022/05/31 02:45:40;;;;;;;4.20;2.10;;;;;;;6.25;91.60;100939.63;6052929;28;20029;-66
2022/05/31 02:48:35;;;;;;;4.90;2.00;;;;;;;6.02;91.28;100939.66;6053581;28;20038;-66
2022/05/31 02:51:38;;;;;;;5.67;2.17;;;;;;;6.11;92.74;100933.72;6050600;28;20026;-66
2022/05/31 02:54:33;;;;;;;4.85;2.00;;;;;;;6.06;93.02;100931.41;6052083;28;20029;-66
2022/05/31 02:57:29;;;;;;;4.75;2.13;;;;;;;6.27;92.25;100935.13;6051239;28;20040;-66
2022/05/31 03:00:24;;;;;;;6.70;1.73;;;;;;;6.29;91.57;100933.19;6049644;28;20096;-65
2022/05/31 03:03:19;;;;;;;6.43;1.70;;;;;;;6.19;91.31;100934.00;6052036;28;20800;-66
2022/05/31 03:06:15;;;;;;;4.60;2.00;;;;;;;6.20;91.73;100931.25;6063031;28;20293;-65
2022/05/31 03:09:10;;;;;;;5.82;2.20;;;;;;;6.12;91.54;100920.44;6059983;28;20275;-66
2022/05/31 03:12:09;;;;;;;5.13;2.07;;;;;;;6.18;91.90;100920.00;6054674;28;20397;-65
2022/05/31 03:15:09;;;;;;;4.43;2.22;;;;;;;6.21;92.42;100934.72;6065777;28;20030;-65
2022/05/31 03:18:06;;;;;;;4.45;2.00;;;;;;;6.19;91.24;100926.09;6051453;28;20030;-67
2022/05/31 03:21:07;;;;;;;5.93;2.10;;;;;;;6.19;92.09;100923.47;6051967;28;20053;-66
2022/05/31 03:24:03;;;;;;;;;;;;;;;6.26;91.92;100937.84;6071595;28;20491;-67
2022/05/31 03:27:00;;;;;;;6.78;1.90;;;;;;;6.43;92.02;100932.19;6050937;28;19921;-66
2022/05/31 03:29:56;;;;;;;4.05;1.75;;;;;;;6.54;91.08;100930.44;6050758;28;20095;-66
2022/05/31 03:32:53;;;;;;;3.40;1.90;;;;;;;6.44;91.17;100931.25;6053365;28;20033;-66
2022/05/31 03:35:48;;;;;;;4.47;1.63;;;;;;;6.40;90.54;100929.78;6050179;28;20037;-65
2022/05/31 03:38:43;;;;;;;5.80;1.80;;;;;;;6.48;90.58;100922.13;6060685;28;20484;-66
2022/05/31 03:41:39;;;;;;;4.70;1.77;;;;;;;6.70;90.61;100929.25;6049267;28;20036;-66
2022/05/31 03:44:34;;;;;;;5.53;1.90;;;;;;;6.67;90.89;100916.31;6050302;28;20034;-66
2022/05/31 03:47:29;;;;;;;3.07;1.60;;;;;;;6.75;91.23;100922.69;6049639;28;20143;-66
2022/05/31 03:50:24;;;;;;;5.30;2.20;;;;;;;6.81;91.17;100935.41;6050130;28;20374;-66
2022/05/31 03:53:20;;;;;;;5.70;1.93;;;;;;;7.00;90.90;100927.78;6050745;28;20069;-66
2022/05/31 03:56:15;;;;;;;6.00;2.00;;;;;;;6.88;89.56;100915.53;6061772;28;20036;-67
2022/05/31 03:59:10;;;;;;;4.10;1.87;;;;;;;6.81;89.02;100930.13;6062286;28;20034;-65
2022/05/31 04:02:06;;;;;;;3.80;1.83;;;;;;;6.74;89.45;100923.63;6054091;28;20273;-67
2022/05/31 04:05:01;;;;;;;4.28;1.98;;;;;;;6.50;89.25;100926.34;6054320;28;20455;-64
2022/05/31 04:08:03;;;;;;;4.10;2.15;;;;;;;6.43;89.94;100913.75;6059266;28;20044;-64
2022/05/31 04:10:59;;;;;;;6.10;1.90;;;;;;;6.61;90.34;100917.63;6054104;28;20149;-67
2022/05/31 04:13:54;;;;;;;8.13;1.92;;;;;;;6.75;89.16;100917.41;6051559;28;20046;-66
2022/05/31 04:16:50;;;;;;;5.78;2.40;;;;;;;6.74;88.91;100914.91;6045833;28;20042;-65
2022/05/31 04:19:45;;;;;;;5.15;1.98;;;;;;;6.63;89.38;100910.47;6045529;28;20034;-65
2022/05/31 04:22:40;;;;;;;4.37;2.40;;;;;;;6.91;89.32;100923.19;6049796;28;20425;-66
2022/05/31 04:25:35;;;;;;;5.13;2.10;;;;;;;7.20;87.90;100927.06;6049658;28;20108;-66
2022/05/31 04:28:31;;;;;;;4.20;1.67;;;;;;;7.14;86.57;100919.66;6052465;28;20083;-65
2022/05/31 04:31:27;;;;;;;6.50;1.90;;;;;;;7.61;86.34;100920.34;6050020;28;20649;-66
2022/05/31 04:34:23;;;;;;;7.93;2.70;;;;;;;7.57;85.30;100930.31;6051230;28;20536;-66
2022/05/31 04:37:18;;;;;;;5.37;2.03;;;;;;;7.47;84.91;100915.31;6050802;28;20045;-65
2022/05/31 04:40:14;;;;;;;4.05;1.90;;;;;;;7.74;85.19;100913.13;6053315;28;20091;-65
2022/05/31 04:43:09;;;;;;;3.50;2.00;;;;;;;7.95;82.66;100914.03;6052559;28;20030;-64
2022/05/31 04:46:12;;;;;;;6.38;2.00;;;;;;;8.29;82.05;100912.97;6049499;28;20037;-64
2022/05/31 04:49:08;;;;;;;4.72;1.90;;;;;;;8.68;80.18;100915.91;6058487;28;20038;-65
2022/05/31 04:52:04;;;;;;;7.53;3.50;;;;;;;8.74;79.54;100929.47;6048530;28;20466;-67
2022/05/31 04:54:59;;;;;;;4.55;1.98;;;;;;;8.98;79.69;100927.38;6048904;28;20030;-65
2022/05/31 04:57:54;;;;;;;4.10;1.60;;;;;;;9.89;76.25;100924.66;6053008;28;20056;-66
2022/05/31 05:00:49;;;;;;;4.60;2.00;;;;;;;10.34;74.60;100921.53;6056308;28;20054;-67
2022/05/31 05:03:45;;;;;;;3.67;1.60;;;;;;;10.27;74.20;100921.28;6061654;28;20275;-66
2022/05/31 05:06:40;;;;;;;5.47;1.88;;;;;;;9.95;74.43;100928.56;6063601;28;20413;-67
2022/05/31 05:09:36;;;;;;;3.80;1.80;;;;;;;10.69;73.20;100921.78;6051967;28;20030;-65
2022/05/31 05:12:31;;;;;;;6.03;2.07;;;;;;;10.51;71.21;100927.00;6057792;28;20033;-65
2022/05/31 05:15:26;;;;;;;8.57;2.95;;;;;;;10.85;70.16;100923.84;6048612;28;20497;-66
2022/05/31 05:18:23;;;;;;;8.73;3.00;;;;;;;11.22;69.50;100922.09;6055789;28;20038;-66
2022/05/31 05:21:18;;;;;;;9.60;2.47;;;;;;;11.73;67.25;100922.47;6049975;28;20037;-67
2022/05/31 05:24:14;;;;;;;7.68;2.90;;;;;;;11.93;66.89;100916.03;6054474;28;20064;-66
2022/05/31 05:27:09;;;;;;;10.00;2.60;;;;;;;12.46;65.00;100916.06;6054120;28;20421;-65
2022/05/31 05:33:19;;;;;;;5.57;1.80;;;;;;;12.55;65.36;100915.13;6066389;28;20030;-66
2022/05/31 05:36:14;;;;;;;8.70;2.20;;;;;;;12.21;63.67;100919.47;6056928;28;20025;-66
2022/05/31 05:39:10;;;;;;;7.10;1.75;;;;;;;11.80;65.36;100918.22;6057139;28;20033;-67
2022/05/31 05:42:05;;;;;;;9.18;2.05;;;;;;;12.85;63.76;100921.88;6052268;28;20026;-65
2022/05/31 05:45:02;;;;;;;8.52;2.42;;;;;;;13.23;59.69;100914.47;6053801;28;20045;-66
2022/05/31 05:47:58;;;;;;;6.63;1.85;;;;;;;14.23;60.15;100912.66;6054728;28;20475;-66
2022/05/31 05:50:53;;;;;;;8.60;1.87;;;;;;;15.05;58.12;100914.34;6053802;28;20036;-67
2022/05/31 05:53:49;;;;;;;4.83;1.83;;;;;;;15.04;56.29;100915.34;6061174;28;20034;-66
2022/05/31 05:56:44;;;;;;;6.45;2.25;;;;;;;14.10;57.83;100904.31;6054940;28;20041;-65
2022/05/31 05:59:40;;;;;;;4.23;1.93;;;;;;;15.38;55.37;100914.06;6053824;28;20034;-65
2022/05/31 06:02:35;;;;;;;7.07;1.90;;;;;;;15.01;57.25;100913.84;6053662;28;20050;-66
2022/05/31 06:05:31;;;;;;;9.45;2.10;;;;;;;15.91;52.33;100899.19;6056388;28;20030;-66
2022/05/31 06:08:38;;;;;;;7.88;2.40;;;;;;;15.28;53.54;100908.09;6053316;28;20038;-65
2022/05/31 06:11:43;;;;;;;6.75;2.00;;;;;;;13.92;55.03;100906.25;6070864;28;20026;-66
2022/05/31 06:14:41;;;;;;;5.20;1.90;;;;;;;14.81;53.74;100909.88;6052042;28;20026;-67
2022/05/31 06:17:41;;;;;;;8.13;2.13;;;;;;;13.88;57.09;100916.44;6083078;28;20030;-67
2022/05/31 06:20:37;;;;;;;5.88;1.50;;;;;;;15.04;55.54;100912.66;6049093;28;20029;-67
2022/05/31 06:23:34;;;;;;;6.82;1.60;;;;;;;14.96;54.30;100910.84;6058812;28;20029;-67
2022/05/31 06:26:29;;;;;;;4.18;1.73;;;;;;;14.93;52.57;100908.53;6058185;28;20045;-64
2022/05/31 06:29:25;;;;;;;7.80;1.60;;;;;;;15.02;51.67;100912.84;6060940;28;20089;-67
2022/05/31 06:32:20;;;;;;;6.20;1.63;;;;;;;14.36;52.30;100917.53;6061891;28;20061;-65
2022/05/31 06:35:16;;;;;;;7.32;1.83;;;;;;;13.90;54.53;100918.91;6050799;28;20054;-66
2022/05/31 06:38:11;;;;;;;4.77;1.43;;;;;;;13.86;56.52;100902.41;6051047;28;20049;-65
2022/05/31 06:41:06;;;;;;;7.47;1.80;;;;;;;12.76;58.78;100920.13;6062364;28;20285;-66
2022/05/31 06:44:02;;;;;;;6.47;1.80;;;;;;;13.65;57.84;100900.19;6056623;28;20112;-65
2022/05/31 06:46:57;;;;;;;3.97;1.30;;;;;;;13.67;57.30;100910.66;6051751;28;20040;-67
2022/05/31 06:49:53;;;;;;;6.90;1.70;;;;;;;13.60;58.07;100920.31;6052708;28;20089;-65
2022/05/31 06:59:16;;;;;;;8.73;2.75;;;;;;;14.24;55.91;100912.47;6051735;28;20030;-65
2022/05/31 07:02:11;;;;;;;9.60;2.70;;;;;;;14.79;53.71;100923.38;6056121;28;20030;-65
2022/05/31 07:05:07;;;;;;;8.57;2.80;;;;;;;14.93;54.72;100908.53;6057103;28;20305;-65
2022/05/31 07:08:02;;;;;;;8.43;3.13;;;;;;;15.49;52.24;100911.06;6058940;28;20485;-65
2022/05/31 07:10:59;;;;;;;7.68;2.53;;;;;;;15.14;52.57;100899.94;6060171;28;20033;-66
2022/05/31 07:13:55;;;;;;;6.85;2.45;;;;;;;14.53;54.06;100904.06;6061222;28;20022;-65
2022/05/31 07:16:50;;;;;;;8.82;2.60;;;;;;;14.05;55.13;100915.44;6060974;28;20041;-65
2022/05/31 07:19:45;;;;;;;7.33;2.43;;;;;;;14.76;52.68;100898.84;6051454;28;20038;-67
2022/05/31 07:22:41;;;;;;;8.17;2.40;;;;;;;15.28;52.39;100900.09;6051513;28;20049;-65
2022/05/31 07:25:36;;;;;;;7.57;2.90;;;;;;;15.31;51.90;100907.75;6051859;28;20025;-66
2022/05/31 07:28:32;;;;;;;6.53;1.60;;;;;;;15.77;49.44;100892.72;6051763;28;20421;-65
2022/05/31 07:31:27;;;;;;;3.58;1.27;;;;;;;15.79;48.20;100890.72;6063208;28;20057;-65
2022/05/31 07:34:25;;;;;;;5.07;1.60;;;;;;;15.00;49.13;100893.47;6055601;28;20033;-66
2022/05/31 07:37:21;;;;;;;3.50;1.52;;;;;;;15.54;50.70;100889.19;6060455;28;20056;-65
2022/05/31 07:40:16;;;;;;;2.70;1.43;;;;;;;15.29;50.69;100888.41;6059368;28;20033;-66
2022/05/31 07:43:11;;;;;;;2.87;1.30;;;;;;;15.53;50.75;100886.66;6050655;28;20087;-65
2022/05/31 07:46:10;;;;;;;2.77;1.00;;;;;;;15.77;49.08;100886.53;6057830;28;20124;-67
2022/05/31 07:49:06;;;;;;;2.25;1.10;;;;;;;16.69;48.59;100888.28;6050500;28;20276;-66
2022/05/31 07:52:01;;;;;;;5.03;1.15;;;;;;;16.53;47.35;100876.69;6061447;28;20605;-67
2022/05/31 07:54:56;;;;;;;3.88;1.15;;;;;;;16.24;49.41;100881.91;6084935;28;20048;-67
2022/05/31 08:01:08;;;;;;;2.72;1.20;;;;;;;16.92;47.41;100856.91;6054095;28;20030;-67
2022/05/31 08:04:04;;;;;;;2.00;0.90;;;;;;;16.53;45.94;100865.97;6054203;28;20489;-65
2022/05/31 08:06:59;;;;;;;1.83;1.02;;;;;;;16.53;46.51;100860.63;6063008;28;20079;-67
2022/05/31 08:09:55;;;;;;;3.53;1.00;;;;;;;16.40;45.75;100863.03;6054927;28;20084;-65
2022/05/31 08:12:50;;;;;;;3.70;1.20;;;;;;;16.59;45.05;100851.88;6049130;28;20057;-66
2022/05/31 08:15:45;;;;;;;3.63;1.10;;;;;;;16.60;44.98;100853.50;6050055;28;20034;-67
2022/05/31 08:18:42;;;;;;;1.87;0.70;;;;;;;16.79;42.30;100846.84;6049948;28;20038;-65
2022/05/31 08:21:38;;;;;;;2.25;0.80;;;;;;;16.28;41.90;100840.38;6053419;28;20389;-67
2022/05/31 08:24:34;;;;;;;2.38;0.80;;;;;;;17.27;40.13;100845.44;6050356;28;20026;-66
2022/05/31 08:27:32;;;;;;;2.08;0.70;;;;;;;17.34;42.22;100851.72;6049677;28;20408;-67
2022/05/31 08:30:28;;;;;;;1.30;0.70;;;;;;;17.30;40.33;100846.91;6050257;28;20086;-67
2022/05/31 08:33:27;;;;;;;3.28;0.73;;;;;;;16.88;40.58;100834.16;6056365;28;20564;-67
2022/05/31 08:36:22;;;;;;;3.67;1.23;;;;;;;16.95;40.18;100835.09;6039717;28;20068;-66
2022/05/31 08:39:17;;;;;;;4.23;0.90;;;;;;;17.00;39.98;100830.03;6043964;28;20053;-67
2022/05/31 08:42:30;;;;;;;1.83;0.70;;;;;;;16.88;39.79;100826.13;6030971;28;20353;-67
2022/05/31 08:45:53;;;;;;;1.50;0.60;;;;;;;16.33;37.92;100829.16;6028161;28;20043;-66
2022/05/31 08:48:56;;;;;;;1.45;0.57;;;;;;;16.96;38.07;100826.06;6028706;28;20485;-67
2022/05/31 08:52:03;;;;;;;5.03;0.82;;;;;;;16.89;39.97;100831.31;6028118;28;20030;-66
2022/05/31 08:58:27;;;;;;;1.38;0.60;;;;;;;17.45;39.53;100813.69;6023732;28;20066;-67
2022/05/31 09:01:26;;;;;;;2.10;0.85;;;;;;;16.93;40.17;100807.69;6045222;28;20139;-66
2022/05/31 09:04:25;;;;;;;1.48;0.80;;;;;;;17.27;39.75;100818.63;6030650;28;20121;-68
2022/05/31 09:07:25;;;;;;;2.72;0.80;;;;;;;17.53;37.01;100799.38;6030258;28;20034;-67
2022/05/31 09:10:48;;;;;;;2.65;0.70;;;;;;;16.75;39.94;100807.19;6029704;28;20034;-66
2022/05/31 09:13:54;;;;;;;1.08;0.70;;;;;;;17.76;38.47;100811.63;6029631;28;20129;-66
2022/05/31 09:17:21;;;;;;;1.33;0.60;;;;;;;17.79;38.25;100800.53;6033580;28;20038;-67
2022/05/31 09:20:26;;;;;;;2.42;0.82;;;;;;;17.46;37.64;100798.44;6021066;28;20043;-66
2022/05/31 09:23:25;;;;;;;3.70;1.00;;;;;;;17.71;39.53;100807.84;6028765;28;20398;-67
2022/05/31 09:26:53;;;;;;;1.50;0.90;;;;;;;17.72;37.42;100799.59;6033383;28;20050;-68
2022/05/31 09:30:10;;;;;;;2.55;1.00;;;;;;;17.03;37.00;100797.50;6029820;28;20065;-67
2022/05/31 09:33:32;;;;;;;2.67;1.00;;;;;;;17.54;34.95;100799.22;6029574;28;20049;-67
2022/05/31 09:36:37;;;;;;;3.00;1.17;;;;;;;17.87;34.48;100798.72;6028075;28;20038;-66
2022/05/31 09:39:39;;;;;;;2.42;1.10;;;;;;;17.79;34.34;100800.53;6035077;28;20029;-67
2022/05/31 09:42:40;;;;;;;4.05;1.50;;;;;;;17.51;35.06;100799.53;6063237;28;20069;-68
2022/05/31 09:45:39;;;;;;;2.88;1.25;;;;;;;17.68;35.13;100795.66;6030611;28;20026;-68
2022/05/31 09:48:48;;;;;;;2.70;1.40;;;;;;;18.18;34.28;100800.06;6029604;28;20066;-68
2022/05/31 09:51:43;;;;;;;2.72;1.40;;;;;;;18.40;33.63;100784.75;6034777;28;20077;-67
2022/05/31 09:58:36;;;;;;;3.42;1.63;;;;;;;18.35;34.21;100776.44;6027416;28;20054;-66
2022/05/31 10:01:31;;;;;;;3.28;1.40;;;;;;;18.31;33.46;100786.75;6037629;28;20523;-66
2022/05/31 10:04:30;;;;;;;4.07;1.10;;;;;;;18.20;34.91;100779.22;6032826;28;20046;-67
2022/05/31 10:07:37;;;;;;;5.50;1.80;;;;;;;18.16;33.32;100782.47;6058032;28;20068;-66
2022/05/31 10:10:35;;;;;;;4.30;1.42;;;;;;;18.63;32.03;100782.69;6073416;28;20090;-67
2022/05/31 10:13:42;;;;;;;3.30;1.50;;;;;;;19.26;31.15;100775.38;6070343;28;20428;-68
2022/05/31 10:16:37;;;;;;;3.67;1.30;;;;;;;18.90;31.33;100775.63;6065222;28;20485;-67
2022/05/31 10:19:33;;;;;;;4.17;1.50;;;;;;;18.36;32.07;100770.91;6054271;28;20084;-66
2022/05/31 10:22:29;;;;;;;3.67;1.55;;;;;;;18.42;32.74;100774.66;6051053;28;20040;-68
2022/05/31 10:25:29;;;;;;;3.85;1.40;;;;;;;18.81;31.79;100764.19;6064295;28;20033;-67
2022/05/31 10:28:36;;;;;;;3.67;1.52;;;;;;;19.20;31.67;100762.72;6053430;28;20053;-66
2022/05/31 10:31:37;;;;;;;3.97;1.60;;;;;;;18.14;32.20;100763.06;6054168;28;20052;-66
2022/05/31 10:34:34;;;;;;;3.20;1.30;;;;;;;18.93;31.54;100759.94;6053951;28;20033;-66
2022/05/31 10:37:32;;;;;;;2.95;1.38;;;;;;;18.91;32.93;100751.25;6052503;28;20042;-67
2022/05/31 10:40:45;;;;;;;4.60;1.60;;;;;;;18.76;32.43;100747.84;6051266;28;20556;-67
2022/05/31 10:43:41;;;;;;;3.53;1.48;;;;;;;18.59;32.90;100746.47;6051323;28;20473;-66
2022/05/31 10:46:37;;;;;;;4.38;1.40;;;;;;;19.26;32.87;100748.47;6051816;28;20033;-66
2022/05/31 10:49:32;;;;;;;4.78;1.50;;;;;;;18.94;32.18;100740.06;6064028;28;20034;-67
2022/05/31 10:52:41;;;;;;;5.53;1.93;;;;;;;19.67;31.98;100721.50;6066361;28;20504;-67
2022/05/31 10:55:41;;;;;;;5.03;1.65;;;;;;;19.60;32.65;100735.78;6053706;28;20033;-68
2022/05/31 10:58:54;;;;;;;3.65;1.55;;;;;;;19.39;33.13;100730.56;6055369;28;20105;-67
2022/05/31 11:01:56;;;;;;;3.00;1.60;;;;;;;19.11;32.29;100728.97;6053367;28;20044;-68
2022/05/31 11:05:05;;;;;;;4.47;1.67;;;;;;;18.70;33.14;100727.13;6044591;28;20405;-67
2022/05/31 11:11:50;;;;;;;7.10;2.00;;;;;;;18.97;33.30;100726.22;6073834;28;20034;-67
2022/05/31 11:15:11;;;;;;;4.03;1.85;;;;;;;19.59;33.23;100730.63;6046957;28;20119;-66
2022/05/31 11:18:51;;;;;;;4.30;1.77;;;;;;;20.07;32.58;100721.34;6049616;28;20453;-67
2022/05/31 11:22:24;;;;;;;3.78;1.50;;;;;;;20.25;31.73;100714.53;6038498;28;20406;-67
2022/05/31 11:25:32;;;;;;;5.03;2.22;;;;;;;19.50;33.74;100731.81;6049899;28;20061;-67
2022/05/31 11:28:41;;;;;;;9.55;4.35;;;;;;;19.73;33.41;100723.38;6055417;28;20041;-67
2022/05/31 11:31:56;;;;;;;7.13;2.22;;;;;;;19.54;33.16;100725.03;6051255;28;20038;-67
2022/05/31 11:35:15;;;;;;;6.38;2.58;;;;;;;20.15;32.93;100721.13;6050695;28;20390;-66
2022/05/31 11:38:15;;;;;;;5.07;2.00;;;;;;;20.54;33.18;100716.75;6056909;28;20065;-67
2022/05/31 11:41:20;;;;;;;3.88;1.60;;;;;;;20.77;33.06;100711.69;6051409;28;20052;-68
2022/05/31 11:44:46;;;;;;;4.63;1.83;;;;;;;20.59;31.92;100715.09;6083009;28;20033;-67
2022/05/31 11:48:08;;;;;;;2.80;1.52;;;;;;;21.35;32.56;100710.66;6053640;28;20063;-68
2022/05/31 11:51:16;;;;;;;5.35;1.88;;;;;;;20.06;33.94;100710.75;6088208;28;20040;-67
2022/05/31 11:54:33;;;;;;;5.07;1.50;;;;;;;20.35;34.68;100706.84;6061556;28;20033;-67
2022/05/31 11:57:49;;;;;;;6.60;1.60;;;;;;;20.22;33.67;100701.44;6082732;28;20041;-66
2022/05/31 12:00:59;;;;;;;3.60;1.50;;;;;;;19.35;35.22;100704.25;6051898;28;20044;-67
2022/05/31 12:04:08;;;;;;;6.25;1.70;;;;;;;20.59;33.22;100695.38;6049982;28;20384;-67
2022/05/31 12:07:12;;;;;;;10.30;2.38;;;;;;;19.65;33.70;100696.69;6091769;28;20034;-68
2022/05/31 12:10:13;;;;;;;6.38;1.83;;;;;;;20.01;34.38;100692.53;6054801;28;20045;-66
2022/05/31 12:13:10;;;;;;;5.60;1.60;;;;;;;20.04;35.62;100689.44;6052342;28;20053;-66
2022/05/31 12:16:06;;;;;;;6.43;1.70;;;;;;;20.79;33.55;100678.09;6065081;28;20461;-68
2022/05/31 12:19:11;;;;;;;3.22;1.23;;;;;;;21.28;31.92;100687.44;6061922;28;20056;-68
2022/05/31 12:22:15;;;;;;;5.93;2.35;;;;;;;21.73;30.30;100674.69;6049007;28;20457;-67
2022/05/31 12:25:16;;;;;;;4.30;1.70;;;;;;;21.74;32.12;100673.66;6048196;28;20022;-68
2022/05/31 12:28:18;;;;;;;4.35;1.60;;;;;;;21.60;34.25;100674.78;6051451;28;20121;-68
2022/05/31 12:31:19;;;;;;;4.88;1.70;;;;;;;21.69;31.38;100666.19;6047881;28;20038;-68
2022/05/31 12:34:21;;;;;;;4.32;1.30;;;;;;;21.90;31.26;100656.94;6049439;28;20033;-68
2022/05/31 12:37:16;;;;;;;4.38;1.65;;;;;;;22.05;33.12;100652.00;6049751;28;20045;-68
2022/05/31 12:40:37;;;;;;;4.55;1.73;;;;;;;22.39;30.79;100659.53;6051118;28;20038;-68
2022/05/31 12:43:42;;;;;;;4.63;1.67;;;;;;;22.30;32.41;100652.81;6043718;28;20065;-68
2022/05/31 12:46:41;;;;;;;4.10;1.80;;;;;;;22.22;31.15;100644.97;6051269;28;20026;-67
2022/05/31 12:49:48;;;;;;;4.93;1.73;;;;;;;22.15;30.55;100635.31;6054682;28;20469;-68
2022/05/31 12:53:22;;;;;;;5.38;1.50;;;;;;;22.37;31.06;100641.91;6055996;28;20045;-67
2022/05/31 12:56:34;;;;;;;3.60;1.42;;;;;;;22.21;30.06;100640.63;6049160;28;20068;-67
2022/05/31 12:59:44;;;;;;;5.65;1.80;;;;;;;21.03;32.76;100646.91;6053209;28;20064;-68
2022/05/31 13:02:39;;;;;;;6.82;1.85;;;;;;;21.68;31.33;100640.25;6039352;28;20061;-67
2022/05/31 13:05:37;;;;;;;5.72;2.10;;;;;;;21.77;31.22;100643.47;6067221;28;20423;-67
2022/05/31 13:08:57;;;;;;;4.28;1.70;;;;;;;21.82;31.49;100628.28;6050507;28;20103;-68
2022/05/31 13:21:58;;;;;;;5.30;1.42;;;;;;;22.32;30.73;100636.34;6044931;28;20037;-68
2022/05/31 13:25:02;;;;;;;2.47;1.42;;;;;;;21.93;30.56;100621.38;6054866;28;20037;-67
2022/05/31 13:27:59;;;;;;;4.35;1.65;;;;;;;22.53;30.40;100628.63;6049953;28;20036;-68
2022/05/31 13:31:09;;;;;;;5.45;1.63;;;;;;;22.81;29.27;100632.69;6059240;28;20429;-68
2022/05/31 13:34:07;;;;;;;3.78;1.63;;;;;;;22.23;30.02;100637.72;6053601;28;20037;-68
2022/05/31 13:37:13;;;;;;;3.33;1.90;;;;;;;21.74;30.31;100633.97;6058615;28;20581;-67
2022/05/31 13:40:09;;;;;;;4.57;1.55;;;;;;;21.65;31.45;100634.47;6047161;28;20061;-68
2022/05/31 13:43:35;;;;;;;4.35;1.80;;;;;;;21.18;32.67;100628.56;6061399;28;20477;-67
2022/05/31 13:46:39;;;;;;;4.95;1.48;;;;;;;20.93;34.24;100624.94;6057420;28;20073;-67
2022/05/31 13:49:37;;;;;;;4.28;1.67;;;;;;;20.91;32.77;100621.66;6057459;28;20075;-67
2022/05/31 13:52:33;;;;;;;4.00;1.50;;;;;;;20.52;33.80;100611.84;6069590;28;20025;-67
2022/05/31 13:55:29;;;;;;;2.97;1.37;;;;;;;20.69;33.91;100613.03;6056153;28;20060;-67
2022/05/31 13:58:34;;;;;;;6.15;2.00;;;;;;;20.74;33.34;100609.69;6069117;28;20555;-67
2022/05/31 14:01:44;;;;;;;5.85;1.65;;;;;;;20.68;33.86;100605.19;6059758;28;20100;-66
2022/05/31 14:04:39;;;;;;;4.05;1.45;;;;;;;20.31;34.63;100604.06;6044055;28;20046;-68
2022/05/31 14:07:37;;;;;;;6.10;1.73;;;;;;;20.75;32.75;100596.03;6066565;28;20033;-68
2022/05/31 14:10:46;;;;;;;2.95;1.42;;;;;;;20.84;34.32;100587.69;6056791;28;20334;-67
2022/05/31 14:13:41;;;;;;;6.47;1.35;;;;;;;20.58;32.79;100591.31;6052505;28;20125;-67
2022/05/31 14:16:40;;;;;;;3.47;1.70;;;;;;;20.63;32.57;100580.72;6053670;28;20045;-68
2022/05/31 14:19:42;;;;;;;3.28;1.50;;;;;;;21.05;35.50;100595.44;6057259;28;20026;-67
2022/05/31 14:22:38;;;;;;;5.05;1.27;;;;;;;21.86;31.67;100593.56;6056140;28;20045;-68
2022/05/31 14:25:33;;;;;;;4.03;1.27;;;;;;;22.73;31.76;100573.50;6054807;28;20124;-67
2022/05/31 14:28:29;;;;;;;4.05;1.63;;;;;;;23.74;27.83;100570.69;6083465;28;20062;-68
2022/05/31 14:31:25;;;;;;;3.85;1.35;;;;;;;24.85;27.89;100563.91;6054999;28;20374;-68
2022/05/31 14:34:24;;;;;;;4.55;1.95;;;;;;;25.63;26.95;100568.53;6065633;28;20033;-68
2022/05/31 14:37:28;;;;;;;3.13;1.50;;;;;;;25.01;25.83;100565.00;6085446;28;20037;-68